createdAt,value
2018-06-05T00:01:27.442Z,93193.27
2018-06-05T00:03:56.182Z,93185.42
2018-06-05T00:06:24.995Z,93185.84
2018-06-05T00:08:53.787Z,93183.50
2018-06-05T00:11:22.556Z,93181.89
2018-06-05T00:13:51.329Z,93184.74
2018-06-05T00:16:20.089Z,93178.97
2018-06-05T00:18:48.952Z,93178.83
2018-06-05T00:21:17.706Z,93181.56
2018-06-05T00:23:46.461Z,93174.89
2018-06-05T00:26:15.212Z,93181.05
2018-06-05T00:28:43.985Z,93170.47
2018-06-05T00:31:12.755Z,93174.38
2018-06-05T00:33:41.504Z,93168.25
2018-06-05T00:36:10.293Z,93173.06
2018-06-05T00:38:39.036Z,93182.27
2018-06-05T00:41:07.850Z,93182.65
2018-06-05T00:43:36.583Z,93183.66
2018-06-05T00:46:05.330Z,93179.94
2018-06-05T00:48:34.079Z,93181.91
2018-06-05T00:51:09.236Z,93180.02
2018-06-05T00:53:38.006Z,93179.13
2018-06-05T00:56:06.757Z,93176.59
2018-06-05T00:58:35.526Z,93182.36
2018-06-05T01:01:04.295Z,93185.19
2018-06-05T01:03:33.104Z,93187.47
2018-06-05T01:06:01.881Z,93191.56
2018-06-05T01:08:30.667Z,93195.14
2018-06-05T01:10:59.454Z,93193.50
2018-06-05T01:13:28.219Z,93188.29
2018-06-05T01:15:56.991Z,93178.91
2018-06-05T01:18:25.761Z,93186.80
2018-06-05T01:20:54.543Z,93181.45
2018-06-05T01:23:23.297Z,93181.11
2018-06-05T01:25:52.132Z,93173.86
2018-06-05T01:28:20.876Z,93173.30
2018-06-05T01:30:49.617Z,93170.50
2018-06-05T01:33:18.401Z,93178.77
2018-06-05T01:35:47.151Z,93180.14
2018-06-05T01:38:15.915Z,93172.41
2018-06-05T01:40:44.671Z,93176.12
2018-06-05T01:43:13.422Z,93181.22
2018-06-05T01:45:42.201Z,93177.09
2018-06-05T01:48:11.025Z,93178.91
2018-06-05T01:50:39.842Z,93178.98
2018-06-05T01:53:08.579Z,93184.82
2018-06-05T01:55:37.337Z,93184.71
2018-06-05T01:58:06.100Z,93187.34
2018-06-05T02:00:34.859Z,93186.90
2018-06-05T02:03:03.596Z,93192.86
2018-06-05T02:05:32.350Z,93189.77
2018-06-05T02:08:01.156Z,93184.00
2018-06-05T02:10:30.054Z,93183.62
2018-06-05T02:12:58.812Z,93187.23
2018-06-05T02:15:27.598Z,93184.29
2018-06-05T02:17:56.384Z,93181.92
2018-06-05T02:20:25.154Z,93182.02
2018-06-05T02:22:53.910Z,93181.13
2018-06-05T02:25:22.663Z,93182.73
2018-06-05T02:27:51.425Z,93177.34
2018-06-05T02:30:20.178Z,93173.17
2018-06-05T02:32:49.064Z,93183.29
2018-06-05T02:35:17.854Z,93185.00
2018-06-05T02:37:46.684Z,93186.75
2018-06-05T02:40:15.439Z,93178.27
2018-06-05T02:42:44.211Z,93186.03
2018-06-05T02:45:13.004Z,93189.45
2018-06-05T02:47:41.768Z,93196.67
2018-06-05T02:50:10.561Z,93192.52
2018-06-05T02:52:39.331Z,93202.08
2018-06-05T02:55:08.171Z,93196.09
2018-06-05T02:57:36.957Z,93190.95
2018-06-05T03:00:06.075Z,93200.25
2018-06-05T03:02:34.836Z,93203.39
2018-06-05T03:05:03.622Z,93206.07
2018-06-05T03:07:32.357Z,93194.95
2018-06-05T03:10:01.097Z,93192.23
2018-06-05T03:12:29.876Z,93191.67
2018-06-05T03:14:58.707Z,93206.45
2018-06-05T03:17:27.535Z,93204.22
2018-06-05T03:19:56.380Z,93196.59
2018-06-05T03:22:25.128Z,93201.05
2018-06-05T03:24:53.889Z,93214.75
2018-06-05T03:27:22.659Z,93209.59
2018-06-05T03:29:51.415Z,93204.86
2018-06-05T03:32:20.283Z,93218.30
2018-06-05T03:34:49.103Z,93216.78
2018-06-05T03:37:17.872Z,93213.68
2018-06-05T03:39:46.669Z,93209.38
2018-06-05T03:42:15.423Z,93204.16
2018-06-05T03:44:44.212Z,93198.90
2018-06-05T03:47:13.000Z,93196.91
2018-06-05T03:49:42.127Z,93183.39
2018-06-05T03:52:11.380Z,93182.20
2018-06-05T03:54:40.136Z,93183.20
2018-06-05T03:57:08.944Z,93183.20
2018-06-05T03:59:37.695Z,93173.00
2018-06-05T04:02:06.509Z,93174.39
2018-06-05T04:04:35.247Z,93172.05
2018-06-05T04:07:04.018Z,93175.58
2018-06-05T04:09:32.812Z,93175.05
2018-06-05T04:12:01.559Z,93174.30
2018-06-05T04:14:30.334Z,93173.27
2018-06-05T04:16:59.178Z,93168.06
2018-06-05T04:19:27.912Z,93167.65
2018-06-05T04:21:56.736Z,93171.87
2018-06-05T04:24:26.091Z,93167.43
2018-06-05T04:26:54.865Z,93165.53
2018-06-05T04:29:23.640Z,93168.33
2018-06-05T04:31:52.421Z,93165.41
2018-06-05T04:34:21.189Z,93167.38
2018-06-05T04:36:50.031Z,93169.91
2018-06-05T04:39:18.814Z,93179.84
2018-06-05T04:41:47.572Z,93171.05
2018-06-05T04:44:16.371Z,93178.02
2018-06-05T04:46:45.237Z,93177.34
2018-06-05T04:49:14.042Z,93185.83
2018-06-05T04:51:42.961Z,93187.25
2018-06-05T04:54:11.731Z,93187.80
2018-06-05T04:56:40.498Z,93186.31
2018-06-05T04:59:09.262Z,93186.34
2018-06-05T05:01:38.014Z,93192.95
2018-06-05T05:04:06.769Z,93182.25
2018-06-05T05:06:35.513Z,93181.39
2018-06-05T05:09:05.116Z,93174.71
2018-06-05T05:11:33.874Z,93178.16
2018-06-05T05:14:02.679Z,93183.33
2018-06-05T05:16:31.511Z,93189.59
2018-06-05T05:19:00.326Z,93199.91
2018-06-05T05:21:29.084Z,93193.22
2018-06-05T05:23:57.858Z,93200.56
2018-06-05T05:26:26.654Z,93200.33
2018-06-05T05:28:55.410Z,93198.78
2018-06-05T05:31:24.255Z,93203.95
2018-06-05T05:33:53.027Z,93209.16
2018-06-05T05:36:21.779Z,93210.82
2018-06-05T05:38:50.547Z,93221.91
2018-06-05T05:41:19.337Z,93218.47
2018-06-05T05:43:48.160Z,93219.41
2018-06-05T05:46:16.942Z,93218.80
2018-06-05T05:48:45.708Z,93217.98
2018-06-05T05:51:14.482Z,93222.42
2018-06-05T05:53:43.253Z,93220.56
2018-06-05T05:56:12.063Z,93220.27
2018-06-05T05:58:40.904Z,93226.85
2018-06-05T06:01:09.679Z,93219.34
2018-06-05T06:03:38.450Z,93220.72
2018-06-05T06:06:07.203Z,93210.36
2018-06-05T06:08:35.939Z,93211.16
2018-06-05T06:11:04.722Z,93217.36
2018-06-05T06:13:33.575Z,93220.90
2018-06-05T06:16:02.390Z,93225.56
2018-06-05T06:18:31.143Z,93226.32
2018-06-05T06:21:00.002Z,93224.46
2018-06-05T06:23:28.767Z,93223.77
2018-06-05T06:25:57.573Z,93214.72
2018-06-05T06:28:26.352Z,93222.65
2018-06-05T06:30:55.140Z,93214.28
2018-06-05T06:33:23.924Z,93216.87
2018-06-05T06:35:52.709Z,93223.41
2018-06-05T06:38:21.591Z,93212.50
2018-06-05T06:40:51.400Z,93216.87
2018-06-05T06:43:20.190Z,93218.04
2018-06-05T06:45:49.485Z,93213.86
2018-06-05T06:48:18.233Z,93220.74
2018-06-05T06:50:47.265Z,93218.96
2018-06-05T06:53:16.085Z,93210.53
2018-06-05T06:55:44.858Z,93203.01
2018-06-05T06:58:13.629Z,93200.19
2018-06-05T07:00:42.455Z,93206.23
2018-06-05T07:03:11.258Z,93199.73
2018-06-05T07:05:40.031Z,93203.28
2018-06-05T07:08:08.774Z,93195.42
2018-06-05T07:10:37.548Z,93197.64
2018-06-05T07:13:06.334Z,93192.33
2018-06-05T07:15:35.124Z,93186.79
2018-06-05T07:18:03.915Z,93194.73
2018-06-05T07:20:32.684Z,93191.70
2018-06-05T07:23:01.562Z,93185.34
2018-06-05T07:25:30.361Z,93193.66
2018-06-05T07:27:59.150Z,93190.63
2018-06-05T07:30:27.911Z,93197.56
2018-06-05T07:32:56.692Z,93197.45
2018-06-05T07:35:25.507Z,93197.41
2018-06-05T07:37:54.294Z,93191.83
2018-06-05T07:40:23.059Z,93188.11
2018-06-05T07:42:51.824Z,93189.34
2018-06-05T07:45:20.687Z,93189.81
2018-06-05T07:47:49.464Z,93190.57
2018-06-05T07:50:18.328Z,93196.08
2018-06-05T07:52:47.103Z,93193.16
2018-06-05T07:55:15.915Z,93188.36
2018-06-05T07:57:44.653Z,93190.20
2018-06-05T08:00:13.398Z,93191.09
2018-06-05T08:02:42.172Z,93190.60
2018-06-05T08:05:10.944Z,93190.98
2018-06-05T08:07:39.770Z,93185.30
2018-06-05T08:10:08.548Z,93180.99
2018-06-05T08:12:37.326Z,93178.90
2018-06-05T08:15:06.339Z,93180.16
2018-06-05T08:17:35.113Z,93181.51
2018-06-05T08:20:04.010Z,93183.83
2018-06-05T08:22:42.506Z,93186.94
2018-06-05T08:25:11.295Z,93187.47
2018-06-05T08:27:40.168Z,93189.94
2018-06-05T08:30:09.008Z,93191.66
2018-06-05T08:32:37.826Z,93194.07
2018-06-05T08:35:06.643Z,93190.52
2018-06-05T08:37:35.442Z,93197.95
2018-06-05T08:40:04.291Z,93196.31
2018-06-05T08:42:33.044Z,93208.30
2018-06-05T08:45:01.884Z,93201.22
2018-06-05T08:47:30.635Z,93203.77
2018-06-05T08:49:59.416Z,93210.74
2018-06-05T08:52:28.190Z,93200.84
2018-06-05T08:54:56.977Z,93198.73
2018-06-05T08:57:25.753Z,93200.95
2018-06-05T08:59:54.562Z,93194.33
2018-06-05T09:02:23.375Z,93199.12
2018-06-05T09:04:52.139Z,93196.89
2018-06-05T09:07:20.893Z,93193.13
2018-06-05T09:09:49.668Z,93184.42
2018-06-05T09:12:18.530Z,93179.39
2018-06-05T09:14:47.322Z,93180.66
2018-06-05T09:17:16.073Z,93170.11
2018-06-05T09:19:44.920Z,93170.34
2018-06-05T09:22:13.684Z,93172.25
2018-06-05T09:24:42.451Z,93167.03
2018-06-05T09:27:11.205Z,93166.80
2018-06-05T09:29:39.959Z,93166.67
2018-06-05T09:32:08.726Z,93169.78
2018-06-05T09:34:37.539Z,93166.18
2018-06-05T09:37:06.318Z,93162.72
2018-06-05T09:39:35.064Z,93164.69
2018-06-05T09:42:03.915Z,93163.04
2018-06-05T09:44:32.677Z,93155.52
2018-06-05T09:47:01.431Z,93158.86
2018-06-05T09:49:30.206Z,93161.14
2018-06-05T09:51:58.984Z,93153.61
2018-06-05T09:54:27.799Z,93151.86
2018-06-05T09:56:56.684Z,93148.30
2018-06-05T09:59:25.454Z,93145.98
2018-06-05T10:01:54.223Z,93141.97
2018-06-05T10:04:23.067Z,93139.66
2018-06-05T10:06:51.824Z,93138.55
2018-06-05T10:09:20.588Z,93135.61
2018-06-05T10:11:49.348Z,93129.16
2018-06-05T10:14:18.200Z,93136.16
2018-06-05T10:16:46.958Z,93129.01
2018-06-05T10:19:15.754Z,93123.00
2018-06-05T10:21:44.566Z,93131.47
2018-06-05T10:24:13.308Z,93130.32
2018-06-05T10:26:42.075Z,93132.08
2018-06-05T10:29:10.836Z,93130.18
2018-06-05T10:31:39.604Z,93125.75
2018-06-05T10:34:08.418Z,93112.63
2018-06-05T10:36:37.191Z,93110.70
2018-06-05T10:39:07.830Z,93119.31
2018-06-05T10:41:36.647Z,93119.22
2018-06-05T10:44:05.424Z,93115.64
2018-06-05T10:46:34.187Z,93123.22
2018-06-05T10:49:03.009Z,93115.59
2018-06-05T10:51:31.775Z,93119.33
2018-06-05T10:54:00.538Z,93109.02
2018-06-05T10:56:29.337Z,93117.85
2018-06-05T10:58:58.200Z,93118.38
2018-06-05T11:01:26.994Z,93114.20
2018-06-05T11:03:55.816Z,93098.72
2018-06-05T11:06:24.607Z,93100.92
2018-06-05T11:08:53.427Z,93100.50
2018-06-05T11:11:22.202Z,93095.63
2018-06-05T11:13:50.997Z,93090.16
2018-06-05T11:16:19.758Z,93098.39
2018-06-05T11:18:48.527Z,93092.36
2018-06-05T11:21:17.305Z,93098.45
2018-06-05T11:23:46.153Z,93098.61
2018-06-05T11:26:14.982Z,93105.40
2018-06-05T11:28:43.730Z,93091.06
2018-06-05T11:31:12.474Z,93091.16
2018-06-05T11:33:41.264Z,93090.41
2018-06-05T11:36:10.039Z,93083.94
2018-06-05T11:38:38.816Z,93079.55
2018-06-05T11:41:07.581Z,93080.17
2018-06-05T11:43:36.365Z,93077.02
2018-06-05T11:46:05.353Z,93070.88
2018-06-05T11:48:34.151Z,93068.38
2018-06-05T11:51:02.943Z,93069.09
2018-06-05T11:53:31.727Z,93061.50
2018-06-05T11:56:00.461Z,93071.67
2018-06-05T11:58:29.261Z,93068.42
2018-06-05T12:00:58.057Z,93067.33
2018-06-05T12:03:26.800Z,93064.69
2018-06-05T12:05:55.622Z,93056.00
2018-06-05T12:08:24.388Z,93060.55
2018-06-05T12:10:53.187Z,93061.61
2018-06-05T12:13:21.933Z,93053.86
2018-06-05T12:15:50.713Z,93056.09
2018-06-05T12:18:19.486Z,93054.45
2018-06-05T12:20:48.248Z,93052.88
2018-06-05T12:23:17.030Z,93051.69
2018-06-05T12:25:45.855Z,93049.05
2018-06-05T12:28:14.644Z,93049.07
2018-06-05T12:30:43.425Z,93046.92
2018-06-05T12:33:12.225Z,93043.49
2018-06-05T12:35:40.982Z,93048.98
2018-06-05T12:38:09.782Z,93040.03
2018-06-05T12:40:38.556Z,93056.14
2018-06-05T12:43:07.671Z,93047.11
2018-06-05T12:45:36.408Z,93053.53
2018-06-05T12:48:05.416Z,93045.02
2018-06-05T12:50:34.184Z,93053.30
2018-06-05T12:53:03.007Z,93054.88
2018-06-05T12:55:31.885Z,93048.13
2018-06-05T12:58:00.722Z,93040.76
2018-06-05T13:00:29.533Z,93041.31
2018-06-05T13:02:58.355Z,93045.41
2018-06-05T13:05:27.211Z,93045.41
2018-06-05T13:07:55.967Z,93046.64
2018-06-05T13:10:24.723Z,93045.66
2018-06-05T13:12:53.491Z,93040.47
2018-06-05T13:15:22.294Z,93040.98
2018-06-05T13:17:51.164Z,93041.44
2018-06-05T13:20:19.933Z,93037.61
2018-06-05T13:22:48.816Z,93039.87
2018-06-05T13:25:17.585Z,93047.43
2018-06-05T13:27:46.379Z,93050.28
2018-06-05T13:30:15.178Z,93041.66
2018-06-05T13:32:44.014Z,93040.74
2018-06-05T13:35:12.801Z,92983.80
2018-06-05T13:37:41.590Z,93041.31
2018-06-05T13:40:10.465Z,93000.50
2018-06-05T13:42:39.279Z,93047.72
2018-06-05T13:45:08.038Z,93052.75
2018-06-05T13:47:36.782Z,93045.55
2018-06-05T13:50:05.598Z,93050.52
2018-06-05T13:52:34.421Z,93044.21
2018-06-05T13:55:03.215Z,93045.73
2018-06-05T13:57:32.013Z,93040.73
2018-06-05T14:00:00.775Z,93035.54
2018-06-05T14:02:29.656Z,93046.30
2018-06-05T14:04:58.438Z,93039.95
2018-06-05T14:07:27.240Z,93035.86
2018-06-05T14:09:56.015Z,93040.69
2018-06-05T14:12:24.796Z,93035.80
2018-06-05T14:14:53.557Z,93029.87
2018-06-05T14:17:22.424Z,93032.30
2018-06-05T14:19:51.194Z,93041.38
2018-06-05T14:22:19.968Z,93038.87
2018-06-05T14:24:48.879Z,93034.30
2018-06-05T14:27:17.647Z,93036.02
2018-06-05T14:29:46.417Z,93038.59
2018-06-05T14:32:15.174Z,93035.75
2018-06-05T14:34:43.943Z,93037.95
2018-06-05T14:37:12.705Z,93043.52
2018-06-05T14:39:41.470Z,93041.61
2018-06-05T14:42:10.257Z,93042.05
2018-06-05T14:44:39.015Z,93043.91
2018-06-05T14:47:07.891Z,93044.58
2018-06-05T14:49:36.666Z,93053.18
2018-06-05T14:52:05.476Z,93055.87
2018-06-05T14:54:34.246Z,93046.10
2018-06-05T14:57:03.027Z,93050.87
2018-06-05T14:59:31.821Z,93052.06
2018-06-05T15:02:00.599Z,93052.30
2018-06-05T15:04:29.405Z,93057.44
2018-06-05T15:06:58.187Z,93056.41
2018-06-05T15:09:27.030Z,93057.23
2018-06-05T15:11:55.795Z,93063.94
2018-06-05T15:14:24.575Z,93060.03
2018-06-05T15:16:53.360Z,93068.17
2018-06-05T15:19:22.166Z,93070.16
2018-06-05T15:21:50.947Z,93070.56
2018-06-05T15:24:19.735Z,93082.39
2018-06-05T15:26:48.518Z,93078.27
2018-06-05T15:29:17.292Z,93077.30
2018-06-05T15:31:46.128Z,93078.38
2018-06-05T15:34:14.955Z,93079.70
2018-06-05T15:36:43.739Z,93081.67
2018-06-05T15:39:12.568Z,93076.52
2018-06-05T15:41:41.392Z,93083.01
2018-06-05T15:44:10.198Z,93076.57
2018-06-05T15:46:38.999Z,93077.83
2018-06-05T15:49:07.837Z,93078.84
2018-06-05T15:51:36.610Z,93080.48
2018-06-05T15:54:05.662Z,93074.67
2018-06-05T15:56:34.618Z,93081.42
2018-06-05T15:59:03.415Z,93082.78
2018-06-05T16:01:32.166Z,93080.98
2018-06-05T16:04:00.952Z,93080.05
2018-06-05T16:06:30.084Z,93082.71
2018-06-05T16:08:58.852Z,93085.61
2018-06-05T16:11:27.667Z,93082.38
2018-06-05T16:13:56.432Z,93082.08
2018-06-05T16:16:25.245Z,93089.60
2018-06-05T16:18:54.025Z,93080.44
2018-06-05T16:21:22.790Z,93088.47
2018-06-05T16:23:51.587Z,93088.13
2018-06-05T16:26:20.431Z,93089.15
2018-06-05T16:28:49.191Z,93089.45
2018-06-05T16:31:17.958Z,93097.66
2018-06-05T16:33:46.751Z,93097.49
2018-06-05T16:36:15.566Z,93104.66
2018-06-05T16:38:44.348Z,93099.59
2018-06-05T16:41:13.143Z,93102.69
2018-06-05T16:43:41.900Z,93108.30
2018-06-05T16:46:10.763Z,93108.61
2018-06-05T16:48:39.534Z,93111.86
2018-06-05T16:51:08.352Z,93112.96
2018-06-05T16:53:37.161Z,93110.56
2018-06-05T16:56:05.956Z,93108.48
2018-06-05T16:58:34.794Z,93112.17
2018-06-05T17:01:03.586Z,93113.65
2018-06-05T17:03:32.423Z,93118.94
2018-06-05T17:06:01.197Z,93116.56
2018-06-05T17:08:30.041Z,93118.50
2018-06-05T17:10:58.804Z,93115.75
2018-06-05T17:13:27.589Z,93124.75
2018-06-05T17:15:56.402Z,93131.46
2018-06-05T17:18:25.159Z,93129.03
2018-06-05T17:20:53.964Z,93131.42
2018-06-05T17:23:22.806Z,93136.38
2018-06-05T17:25:51.598Z,93145.81
2018-06-05T17:28:20.462Z,93146.37
2018-06-05T17:30:49.488Z,93150.50
2018-06-05T17:33:18.270Z,93153.69
2018-06-05T17:35:47.073Z,93162.95
2018-06-05T17:38:15.858Z,93160.95
2018-06-05T17:40:44.682Z,93165.19
2018-06-05T17:43:13.504Z,93176.03
2018-06-05T17:45:42.353Z,93173.20
2018-06-05T17:48:11.208Z,93176.01
2018-06-05T17:50:40.042Z,93177.99
2018-06-05T17:53:09.688Z,93186.72
2018-06-05T17:55:38.455Z,93189.85
2018-06-05T17:58:07.243Z,93189.44
2018-06-05T18:00:36.059Z,93190.25
2018-06-05T18:03:04.974Z,93191.45
2018-06-05T18:05:33.827Z,93200.47
2018-06-05T18:08:02.690Z,93204.55
2018-06-05T18:10:31.458Z,93210.41
2018-06-05T18:13:00.219Z,93214.75
2018-06-05T18:15:29.035Z,93217.77
2018-06-05T18:17:57.881Z,93220.86
2018-06-05T18:20:26.733Z,93226.83
2018-06-05T18:22:55.535Z,93231.38
2018-06-05T18:25:24.330Z,93221.97
2018-06-05T18:27:53.184Z,93231.88
2018-06-05T18:30:22.139Z,93240.73
2018-06-05T18:32:50.920Z,93234.97
2018-06-05T18:35:19.740Z,93246.97
2018-06-05T18:37:48.542Z,93252.60
2018-06-05T18:40:17.357Z,93257.80
2018-06-05T18:42:46.224Z,93263.97
2018-06-05T18:45:15.060Z,93261.75
2018-06-05T18:47:43.848Z,93265.98
2018-06-05T18:50:12.705Z,93269.75
2018-06-05T18:52:41.634Z,93268.27
2018-06-05T18:55:10.394Z,93275.84
2018-06-05T18:57:39.303Z,93276.30
2018-06-05T19:00:08.438Z,93273.22
2018-06-05T19:02:37.405Z,93273.15
2018-06-05T19:05:06.371Z,93273.12
2018-06-05T19:07:35.451Z,93269.75
2018-06-05T19:10:04.455Z,93264.25
2018-06-05T19:12:33.306Z,93266.09
2018-06-05T19:15:02.236Z,93275.70
2018-06-05T19:17:31.258Z,93271.05
2018-06-05T19:20:00.054Z,93273.81
2018-06-05T19:22:28.859Z,93267.89
2018-06-05T19:24:57.730Z,93275.69
2018-06-05T19:27:26.537Z,93277.34
2018-06-05T19:29:55.385Z,93281.20
2018-06-05T19:32:24.235Z,93273.11
2018-06-05T19:34:53.166Z,93276.64
2018-06-05T19:37:22.076Z,93282.69
2018-06-05T19:39:50.951Z,93273.83
2018-06-05T19:42:19.775Z,93278.95
2018-06-05T19:44:48.592Z,93277.38
2018-06-05T19:47:18.282Z,93274.98
2018-06-05T19:49:47.049Z,93279.99
2018-06-05T19:52:15.946Z,93280.50
2018-06-05T19:54:44.757Z,93283.88
2018-06-05T19:57:13.575Z,93283.47
2018-06-05T19:59:42.409Z,93284.27
2018-06-05T20:02:11.230Z,93291.33
2018-06-05T20:04:40.120Z,93291.73
2018-06-05T20:07:08.987Z,93297.98
2018-06-05T20:09:37.890Z,93303.34
2018-06-05T20:12:06.889Z,93300.34
2018-06-05T20:14:35.693Z,93298.98
2018-06-05T20:17:04.540Z,93305.12
2018-06-05T20:19:33.340Z,93313.26
2018-06-05T20:22:02.259Z,93314.77
2018-06-05T20:24:31.130Z,93315.81
2018-06-05T20:26:59.949Z,93317.58
2018-06-05T20:29:28.772Z,93318.52
2018-06-05T20:31:57.593Z,93318.88
2018-06-05T20:34:26.396Z,93324.07
2018-06-05T20:36:55.213Z,93317.61
2018-06-05T20:39:23.998Z,93325.41
2018-06-05T20:41:52.782Z,93330.85
2018-06-05T20:44:21.686Z,93330.75
2018-06-05T20:46:50.503Z,93336.88
2018-06-05T20:49:19.353Z,93339.33
2018-06-05T20:51:48.137Z,93346.73
2018-06-05T20:54:16.944Z,93346.10
2018-06-05T20:56:45.742Z,93354.78
2018-06-05T20:59:14.524Z,93352.48
2018-06-05T21:01:43.279Z,93352.03
2018-06-05T21:04:12.052Z,93352.38
2018-06-05T21:06:40.981Z,93362.78
2018-06-05T21:09:09.764Z,93356.89
2018-06-05T21:11:38.547Z,93358.62
2018-06-05T21:14:07.295Z,93362.20
2018-06-05T21:16:36.074Z,93360.93
2018-06-05T21:19:05.023Z,93361.97
2018-06-05T21:21:33.825Z,93356.77
2018-06-05T21:24:02.677Z,93362.44
2018-06-05T21:26:31.403Z,93361.97
2018-06-05T21:29:00.212Z,93364.73
2018-06-05T21:31:28.951Z,93359.20
2018-06-05T21:33:57.743Z,93355.05
2018-06-05T21:36:26.542Z,93354.36
2018-06-05T21:38:55.335Z,93357.58
2018-06-05T21:41:24.122Z,93358.03
2018-06-05T21:43:52.890Z,93359.09
2018-06-05T21:46:21.688Z,93351.92
2018-06-05T21:48:50.455Z,93353.77
2018-06-05T21:51:19.266Z,93353.86
2018-06-05T21:53:48.012Z,93351.44
2018-06-05T21:56:16.773Z,93358.38
2018-06-05T21:58:45.522Z,93358.59
2018-06-05T22:01:14.261Z,93355.61
2018-06-05T22:03:43.008Z,93361.48
2018-06-05T22:06:11.776Z,93360.09
2018-06-05T22:08:40.531Z,93362.73
2018-06-05T22:11:09.432Z,93365.05
2018-06-05T22:13:38.299Z,93367.57
2018-06-05T22:16:07.027Z,93368.69
2018-06-05T22:18:35.807Z,93371.69
2018-06-05T22:21:04.615Z,93368.98
2018-06-05T22:23:33.391Z,93374.64
2018-06-05T22:26:02.158Z,93369.89
2018-06-05T22:28:30.919Z,93365.38
2018-06-05T22:30:59.674Z,93362.97
2018-06-05T22:33:28.456Z,93368.05
2018-06-05T22:35:57.293Z,93367.10
2018-06-05T22:38:26.137Z,93368.37
2018-06-05T22:40:54.952Z,93372.75
2018-06-05T22:43:23.717Z,93368.20
2018-06-05T22:45:52.472Z,93362.91
2018-06-05T22:48:21.220Z,93358.04
2018-06-05T22:50:49.992Z,93350.75
2018-06-05T22:53:18.767Z,93351.69
2018-06-05T22:55:47.531Z,93351.32
2018-06-05T22:58:16.373Z,93355.58
2018-06-05T23:00:45.150Z,93359.02
2018-06-05T23:03:13.927Z,93355.08
2018-06-05T23:05:42.727Z,93357.48
2018-06-05T23:08:11.492Z,93362.43
2018-06-05T23:10:40.288Z,93367.14
2018-06-05T23:13:09.092Z,93364.84
2018-06-05T23:15:37.875Z,93371.39
2018-06-05T23:18:06.646Z,93366.18
2018-06-05T23:20:35.455Z,93368.02
2018-06-05T23:23:04.215Z,93363.71
2018-06-05T23:25:33.631Z,93365.68
2018-06-05T23:28:02.375Z,93368.53
2018-06-05T23:30:31.139Z,93370.79
2018-06-05T23:32:59.942Z,93377.81
2018-06-05T23:35:28.712Z,93380.67
2018-06-05T23:37:57.480Z,93376.16
2018-06-05T23:40:26.243Z,93377.30
2018-06-05T23:42:55.102Z,93378.56
2018-06-05T23:45:23.923Z,93374.50
2018-06-05T23:47:52.678Z,93372.98
2018-06-05T23:50:21.448Z,93370.13
2018-06-05T23:52:50.208Z,93371.84
2018-06-05T23:55:18.994Z,93366.44
2018-06-05T23:57:47.726Z,93368.05
